Time;durP1;ratioP1;P1;durP2;ratioP2;P2;SDS_P1;SDS_P2;PMS_P1;PMS_P2;Temp;Humidity;BMP_temperature;BMP_pressure;BME280_temperature;BME280_humidity;BME280_pressure;Samples;Min_cycle;Max_cycle;Signal;HPM_P1;HPM_P2
2022/09/06 00:02:02;;;;;;;8.00;2.70;;;;;;;17.69;82.73;96078.03;5006984;28;20556;-64
2022/09/06 00:04:28;;;;;;;10.35;2.60;;;;;;;17.65;84.30;96076.75;5007568;28;20564;-63
2022/09/06 00:06:53;;;;;;;7.97;2.35;;;;;;;17.64;83.33;96075.09;5015539;28;20560;-64
2022/09/06 00:09:18;;;;;;;7.55;2.83;;;;;;;17.69;82.55;96071.91;5008357;28;20090;-63
2022/09/06 00:11:44;;;;;;;5.50;2.30;;;;;;;17.68;82.74;96071.06;4990489;28;20014;-63
2022/09/06 00:14:09;;;;;;;15.40;2.55;;;;;;;17.67;82.59;96076.53;5008169;28;20028;-63
2022/09/06 00:16:34;;;;;;;13.25;3.08;;;;;;;17.60;82.93;96068.47;5007271;28;20032;-63
2022/09/06 00:19:00;;;;;;;8.98;2.60;;;;;;;17.52;82.46;96066.69;5006533;28;20101;-63
2022/09/06 00:21:29;;;;;;;6.50;2.60;;;;;;;17.49;83.03;96071.50;5007706;28;20057;-63
2022/09/06 00:23:55;;;;;;;4.47;2.47;;;;;;;17.49;83.19;96060.88;5006930;28;20030;-63
2022/09/06 00:26:22;;;;;;;6.38;2.50;;;;;;;17.45;83.21;96057.72;5009077;28;20032;-63
2022/09/06 00:28:47;;;;;;;8.70;2.92;;;;;;;17.45;83.22;96071.03;5008530;28;20104;-63
2022/09/06 00:31:16;;;;;;;7.93;2.72;;;;;;;17.46;83.32;96064.69;5007188;28;20034;-63
2022/09/06 00:33:43;;;;;;;12.80;3.33;;;;;;;17.38;82.93;96064.75;5008312;28;20030;-63
2022/09/06 00:36:09;;;;;;;5.75;2.50;;;;;;;17.38;83.74;96065.59;5013354;28;20024;-63
2022/09/06 00:38:35;;;;;;;9.15;3.10;;;;;;;17.33;84.02;96058.13;5008984;28;20034;-63
2022/09/06 00:41:01;;;;;;;9.38;2.80;;;;;;;17.30;83.93;96060.31;5005272;28;20053;-63
2022/09/06 00:43:27;;;;;;;11.23;2.78;;;;;;;17.28;83.98;96059.66;5009605;28;20184;-63
2022/09/06 00:45:53;;;;;;;10.95;3.08;;;;;;;17.28;84.38;96057.00;5008055;28;20029;-63
2022/09/06 00:48:19;;;;;;;6.03;2.65;;;;;;;17.27;83.71;96058.00;5004947;28;20481;-63
2022/09/06 00:50:47;;;;;;;4.40;2.50;;;;;;;17.24;84.90;96055.69;5007790;28;20026;-63
2022/09/06 00:53:12;;;;;;;12.70;2.60;;;;;;;17.26;84.47;96061.66;5002637;28;20026;-63
2022/09/06 00:55:40;;;;;;;7.60;2.70;;;;;;;17.24;84.46;96058.34;5008336;28;20020;-63
2022/09/06 00:58:06;;;;;;;6.47;2.50;;;;;;;17.24;84.25;96053.03;5006815;28;20033;-63
2022/09/06 01:00:32;;;;;;;6.70;2.47;;;;;;;17.25;84.43;96058.19;5007377;28;20052;-63
2022/09/06 01:02:57;;;;;;;8.77;3.00;;;;;;;17.24;84.86;96053.03;5002979;28;20382;-63
2022/09/06 01:05:33;;;;;;;10.80;2.92;;;;;;;17.11;86.48;96053.59;5005992;28;20030;-63
2022/09/06 01:08:20;;;;;;;6.65;2.40;;;;;;;17.02;86.74;96056.31;5004287;28;20414;-63
2022/09/06 01:10:55;;;;;;;9.52;3.13;;;;;;;17.02;87.80;96055.47;5003421;28;20457;-64
2022/09/06 01:13:20;;;;;;;;;;;;;;;17.01;87.42;96051.97;5006389;28;20056;-63
2022/09/06 01:15:56;;;;;;;11.30;2.47;;;;;;;17.06;86.08;96056.78;5009646;28;19924;-63
2022/09/06 01:18:34;;;;;;;8.35;3.03;;;;;;;17.06;87.21;96059.44;5010517;28;20603;-63
2022/09/06 01:21:21;;;;;;;9.18;2.78;;;;;;;17.04;86.96;96064.09;4999395;28;20034;-63
2022/09/06 01:24:03;;;;;;;8.48;2.47;;;;;;;17.01;86.37;96067.94;5002972;28;20056;-64
2022/09/06 01:26:57;;;;;;;11.32;2.70;;;;;;;17.02;87.59;96068.78;4990347;28;20444;-63
2022/09/06 01:29:47;;;;;;;9.80;2.70;;;;;;;17.04;87.07;96064.09;5007512;28;20037;-63
2022/09/06 01:32:30;;;;;;;6.18;2.70;;;;;;;17.02;86.98;96061.63;5003706;28;20370;-63
2022/09/06 01:35:04;;;;;;;10.77;2.85;;;;;;;16.97;87.16;96060.47;4998785;28;20591;-63
2022/09/06 01:37:29;;;;;;;5.47;2.40;;;;;;;16.97;86.49;96057.81;5007823;28;20030;-63
2022/09/06 01:39:55;;;;;;;7.03;2.50;;;;;;;16.98;87.84;96057.66;5006850;28;20045;-63
2022/09/06 01:42:25;;;;;;;7.93;2.80;;;;;;;16.96;88.58;96061.47;5007703;28;20022;-62
2022/09/06 01:45:00;;;;;;;5.68;2.78;;;;;;;17.01;87.34;96061.81;5002856;28;20030;-63
2022/09/06 01:47:47;;;;;;;12.45;2.65;;;;;;;17.02;87.53;96056.31;5006919;28;20026;-63
2022/09/06 01:50:50;;;;;;;9.93;2.83;;;;;;;17.01;87.06;96064.47;5004438;28;20034;-63
2022/09/06 01:53:36;;;;;;;8.30;2.80;;;;;;;16.97;86.66;96063.13;4996569;28;20053;-63
2022/09/06 01:56:07;;;;;;;;;;;;;;;16.93;87.51;96067.13;5001170;28;20057;-64
2022/09/06 01:58:59;;;;;;;12.38;2.70;;;;;;;16.91;87.87;96064.63;4997775;28;19987;-63
2022/09/06 02:01:37;;;;;;;6.70;2.45;;;;;;;16.87;87.04;96066.81;4999312;28;20029;-64
2022/09/06 02:04:14;;;;;;;8.40;2.53;;;;;;;16.79;88.66;96066.84;4989027;28;20030;-63
2022/09/06 02:06:46;;;;;;;9.70;2.88;;;;;;;16.71;88.63;96064.22;4990513;28;20085;-63
2022/09/06 02:09:19;;;;;;;8.90;2.58;;;;;;;16.70;89.05;96063.38;4989776;28;20050;-63
2022/09/06 02:11:50;;;;;;;10.02;3.10;;;;;;;16.64;89.55;96056.09;4990706;28;20402;-63
2022/09/06 02:14:23;;;;;;;8.27;3.00;;;;;;;16.61;90.05;96062.56;4990190;28;20109;-63
2022/09/06 02:16:52;;;;;;;7.15;2.83;;;;;;;16.57;90.20;96061.25;5013091;28;20065;-63
2022/09/06 02:19:34;;;;;;;11.90;2.80;;;;;;;16.56;90.63;96059.59;5024471;28;20025;-63
2022/09/06 02:22:05;;;;;;;6.22;2.92;;;;;;;16.57;89.92;96050.63;5020943;28;20025;-64
2022/09/06 02:24:35;;;;;;;8.23;2.92;;;;;;;16.54;88.95;96053.63;5019454;28;20019;-64
2022/09/06 02:27:01;;;;;;;6.00;2.65;;;;;;;16.44;89.76;96051.16;5011767;28;20031;-64
2022/09/06 02:29:27;;;;;;;11.65;2.70;;;;;;;16.39;90.08;96058.81;5009712;28;20033;-64
2022/09/06 02:32:04;;;;;;;8.65;2.72;;;;;;;16.38;90.55;96056.31;5014990;28;20527;-64
2022/09/06 02:34:30;;;;;;;9.00;3.03;;;;;;;16.41;89.87;96062.13;4988865;28;20050;-63
2022/09/06 02:36:56;;;;;;;9.05;2.90;;;;;;;16.44;89.68;96060.94;4994721;28;20452;-64
2022/09/06 02:39:23;;;;;;;12.57;3.30;;;;;;;16.39;90.49;96052.66;5016916;28;20026;-63
2022/09/06 02:41:49;;;;;;;11.90;3.20;;;;;;;16.32;91.23;96052.50;5004838;28;20087;-64
2022/09/06 02:44:15;;;;;;;4.75;2.60;;;;;;;16.33;91.35;96041.72;5010247;28;20026;-64
2022/09/06 02:46:40;;;;;;;12.85;2.65;;;;;;;16.29;91.49;96042.22;5022019;28;20028;-64
2022/09/06 02:49:06;;;;;;;9.10;3.22;;;;;;;16.25;92.16;96048.88;5011662;28;20087;-64
2022/09/06 02:51:40;;;;;;;6.30;2.63;;;;;;;16.21;93.50;96043.06;5007239;28;20084;-63
2022/09/06 02:54:06;;;;;;;6.50;2.50;;;;;;;16.22;91.96;96036.75;5015626;28;20022;-64
2022/09/06 02:56:32;;;;;;;8.60;2.63;;;;;;;16.24;91.73;96045.38;5022349;28;20030;-64
2022/09/06 02:58:59;;;;;;;12.80;2.50;;;;;;;16.26;92.42;96045.22;5010140;28;20633;-64
2022/09/06 03:01:24;;;;;;;6.40;2.50;;;;;;;16.25;nan;96049.72;5008986;28;20034;-63
2022/09/06 03:03:49;;;;;;;8.25;2.63;;;;;;;16.26;92.54;96048.72;5006438;28;20397;-64
2022/09/06 03:06:15;;;;;;;9.20;3.08;;;;;;;16.31;91.09;96053.50;5006647;28;20029;-63
2022/09/06 03:08:40;;;;;;;11.65;2.95;;;;;;;16.36;90.19;96055.66;4996188;28;20042;-63
2022/09/06 03:11:05;;;;;;;8.55;2.85;;;;;;;16.31;90.38;96054.34;4988071;28;20335;-63
2022/09/06 03:13:31;;;;;;;14.45;3.17;;;;;;;16.28;90.33;96048.53;4992868;28;20668;-64
2022/09/06 03:15:58;;;;;;;8.25;2.90;;;;;;;16.28;90.61;96044.06;4992013;28;20034;-64
2022/09/06 03:18:26;;;;;;;5.65;2.90;;;;;;;16.25;91.94;96052.38;4984768;28;20026;-64
2022/09/06 03:20:53;;;;;;;6.05;3.25;;;;;;;16.22;91.67;96047.38;5004325;28;20053;-63
2022/09/06 03:23:19;;;;;;;7.65;3.20;;;;;;;16.26;90.48;96046.06;4994852;28;20105;-63
2022/09/06 03:25:44;;;;;;;11.98;2.95;;;;;;;16.27;91.00;96046.88;4993938;28;20193;-63
2022/09/06 03:28:11;;;;;;;9.80;2.95;;;;;;;16.24;92.13;96048.03;4992998;28;20103;-64
2022/09/06 03:30:37;;;;;;;10.57;2.97;;;;;;;16.20;92.97;96044.06;4988315;28;20045;-64
2022/09/06 03:33:02;;;;;;;6.20;2.45;;;;;;;16.23;92.94;96040.25;4981730;28;20035;-64
2022/09/06 03:35:27;;;;;;;11.00;2.85;;;;;;;16.29;92.51;96039.56;4992953;28;20046;-63
2022/09/06 03:37:53;;;;;;;9.50;2.70;;;;;;;16.33;92.98;96038.22;4992551;28;20030;-64
2022/09/06 03:40:18;;;;;;;10.13;2.97;;;;;;;16.43;91.08;96040.69;5000168;28;20030;-63
2022/09/06 03:42:45;;;;;;;7.88;3.03;;;;;;;16.49;90.90;96045.34;5012984;28;20044;-63
2022/09/06 03:45:11;;;;;;;9.43;3.08;;;;;;;16.53;90.97;96045.81;5007159;28;20038;-63
2022/09/06 03:47:36;;;;;;;4.78;3.00;;;;;;;16.55;90.80;96043.81;4992613;28;20050;-64
2022/09/06 03:50:03;;;;;;;7.63;2.45;;;;;;;16.57;90.60;96045.31;5005650;28;20054;-64
2022/09/06 03:52:28;;;;;;;8.05;3.33;;;;;;;16.56;92.03;96048.97;5004122;28;20029;-64
2022/09/06 03:54:53;;;;;;;8.52;3.53;;;;;;;16.57;92.55;96049.78;4988583;28;20039;-64
2022/09/06 03:57:19;;;;;;;5.65;3.30;;;;;;;16.60;91.58;96044.97;4996423;28;20033;-63
2022/09/06 03:59:44;;;;;;;6.88;2.92;;;;;;;16.66;91.37;96050.59;4991985;28;20133;-64
2022/09/06 04:02:09;;;;;;;7.85;2.83;;;;;;;16.67;91.85;96054.91;4982424;28;20426;-63
2022/09/06 04:04:35;;;;;;;8.95;3.08;;;;;;;16.67;91.64;96047.78;4989242;28;20065;-63
2022/09/06 04:07:00;;;;;;;6.55;2.90;;;;;;;16.74;90.33;96046.06;4984079;28;20134;-64
2022/09/06 04:09:25;;;;;;;4.65;2.25;;;;;;;16.80;90.27;96047.22;4996104;28;20029;-63
2022/09/06 04:11:51;;;;;;;6.78;2.70;;;;;;;16.78;90.51;96048.38;5001319;28;20018;-63
2022/09/06 04:14:16;;;;;;;7.93;2.95;;;;;;;16.77;91.25;96036.94;5012625;28;20548;-63
2022/09/06 04:16:41;;;;;;;10.88;4.65;;;;;;;16.78;90.72;96037.75;5003664;28;20435;-64
2022/09/06 04:19:07;;;;;;;7.40;2.90;;;;;;;16.78;90.80;96029.78;5007090;28;20120;-64
2022/09/06 04:21:32;;;;;;;8.52;3.00;;;;;;;16.80;92.14;96036.59;4990982;28;21252;-63
2022/09/06 04:23:58;;;;;;;8.30;3.10;;;;;;;16.80;91.33;96041.06;5006111;28;20105;-63
2022/09/06 04:26:23;;;;;;;8.77;2.70;;;;;;;16.83;91.20;96038.91;4995336;28;20026;-63
2022/09/06 04:28:48;;;;;;;8.88;2.67;;;;;;;16.89;91.00;96048.84;4999685;28;20105;-63
2022/09/06 04:31:14;;;;;;;14.93;3.20;;;;;;;16.89;91.03;96042.72;4995895;28;20052;-64
2022/09/06 04:33:39;;;;;;;8.73;3.58;;;;;;;16.92;91.20;96038.88;4997091;28;20057;-63
2022/09/06 04:36:08;;;;;;;9.20;3.13;;;;;;;16.91;90.47;96038.03;4995644;28;20436;-63
2022/09/06 04:38:36;;;;;;;6.13;2.95;;;;;;;16.94;90.58;96031.56;5011088;28;20029;-64
2022/09/06 04:41:02;;;;;;;11.60;2.88;;;;;;;16.95;91.05;96034.03;5009455;28;20049;-64
2022/09/06 04:43:27;;;;;;;7.70;2.97;;;;;;;16.98;90.53;96019.56;5009608;28;20602;-63
2022/09/06 04:45:53;;;;;;;5.00;2.65;;;;;;;16.96;92.33;96019.72;5007797;28;20026;-63
2022/09/06 04:48:18;;;;;;;11.70;3.42;;;;;;;16.90;91.53;96012.44;5008564;28;20488;-64
2022/09/06 04:50:44;;;;;;;9.63;3.33;;;;;;;16.86;91.60;96029.75;5007289;28;20029;-63
2022/09/06 04:53:12;;;;;;;11.45;4.15;;;;;;;16.88;91.06;96033.06;5009766;28;20117;-63
2022/09/06 04:55:37;;;;;;;9.30;3.35;;;;;;;16.89;90.62;96035.53;5015875;28;20037;-63
2022/09/06 04:58:04;;;;;;;6.85;3.20;;;;;;;16.86;91.10;96037.75;5029134;28;20586;-64
2022/09/06 05:00:32;;;;;;;9.48;3.60;;;;;;;16.82;91.28;96034.59;5011698;28;20425;-64
2022/09/06 05:02:58;;;;;;;6.22;3.15;;;;;;;16.78;91.25;96025.31;5000498;28;20132;-63
2022/09/06 05:05:23;;;;;;;10.43;2.85;;;;;;;16.73;91.13;96025.81;5021129;28;20553;-63
2022/09/06 05:07:53;;;;;;;5.10;3.10;;;;;;;16.69;90.79;96024.50;4992600;28;20057;-63
2022/09/06 05:10:19;;;;;;;7.68;2.67;;;;;;;16.74;90.02;96022.16;5010327;28;20521;-63
2022/09/06 05:12:52;;;;;;;5.93;2.60;;;;;;;16.71;90.23;96027.81;5020049;28;20104;-63
2022/09/06 05:15:18;;;;;;;9.82;3.00;;;;;;;16.71;89.67;96022.50;5010629;28;20036;-63
2022/09/06 05:17:43;;;;;;;7.30;2.85;;;;;;;16.74;89.29;96024.00;5009505;28;20121;-64
2022/09/06 05:20:10;;;;;;;8.35;2.80;;;;;;;16.68;89.98;96028.16;5010161;28;20129;-64
2022/09/06 05:22:36;;;;;;;9.27;3.63;;;;;;;16.58;90.93;96033.69;5009717;28;20414;-63
2022/09/06 05:25:01;;;;;;;8.80;3.13;;;;;;;16.57;90.57;96023.22;5017701;28;20082;-63
2022/09/06 05:27:26;;;;;;;6.53;3.38;;;;;;;16.52;91.68;96029.06;4990544;28;20076;-63
2022/09/06 05:29:52;;;;;;;10.75;5.70;;;;;;;16.50;91.69;96032.88;4995215;28;20792;-63
2022/09/06 05:32:17;;;;;;;15.02;4.40;;;;;;;16.47;92.40;96031.41;4996041;28;20026;-63
2022/09/06 05:34:43;;;;;;;8.63;3.53;;;;;;;16.49;93.10;96037.38;4991149;28;20032;-64
2022/09/06 05:37:08;;;;;;;9.05;3.55;;;;;;;16.49;92.81;96034.72;5002447;28;20052;-63
2022/09/06 05:39:33;;;;;;;11.20;4.47;;;;;;;16.46;94.32;96038.53;4996079;28;20727;-63
2022/09/06 05:41:59;;;;;;;11.43;3.58;;;;;;;16.42;94.79;96044.34;5008223;28;20053;-63
2022/09/06 05:44:24;;;;;;;5.68;3.13;;;;;;;16.46;94.10;96048.31;4996411;28;20026;-63
2022/09/06 05:46:50;;;;;;;9.50;3.05;;;;;;;16.49;93.76;96045.34;5001819;28;20552;-64
2022/09/06 05:49:15;;;;;;;6.57;3.13;;;;;;;16.51;95.00;96045.16;5000728;28;20034;-63
2022/09/06 05:51:41;;;;;;;11.65;3.42;;;;;;;16.52;94.68;96058.28;5007976;28;20079;-62
2022/09/06 05:54:06;;;;;;;5.80;3.10;;;;;;;16.57;94.70;96057.75;5001841;28;20053;-63
2022/09/06 05:56:32;;;;;;;6.13;3.08;;;;;;;16.72;93.34;96061.38;4997275;28;20390;-60
2022/09/06 05:58:57;;;;;;;10.32;3.03;;;;;;;16.70;94.55;96062.56;4992370;28;20030;-60
2022/09/06 06:01:28;;;;;;;15.05;3.90;;;;;;;16.71;94.53;96061.56;5002688;28;20041;-60
2022/09/06 06:03:57;;;;;;;8.18;3.28;;;;;;;16.71;94.73;96062.38;5022336;28;20488;-60
2022/09/06 06:06:24;;;;;;;9.95;3.60;;;;;;;16.69;95.44;96066.19;4996089;28;20026;-60
2022/09/06 06:08:50;;;;;;;10.40;3.72;;;;;;;16.76;94.24;96069.84;4990993;28;20042;-60
2022/09/06 06:11:16;;;;;;;8.82;3.53;;;;;;;16.83;93.31;96065.50;4991444;28;20077;-60
2022/09/06 06:13:42;;;;;;;8.73;3.10;;;;;;;16.90;92.59;96061.13;4993290;28;20022;-59
2022/09/06 06:16:13;;;;;;;8.98;3.35;;;;;;;16.91;92.91;96054.00;4993843;28;20077;-60
2022/09/06 06:18:39;;;;;;;14.60;3.28;;;;;;;16.86;93.10;96054.50;4992265;28;20441;-60
2022/09/06 06:21:10;;;;;;;8.10;3.45;;;;;;;16.87;93.36;96058.81;4997438;28;20027;-60
2022/09/06 06:23:36;;;;;;;8.27;3.80;;;;;;;16.91;92.55;96064.63;5006191;28;20109;-60
2022/09/06 06:26:02;;;;;;;11.20;4.32;;;;;;;16.95;92.48;96059.81;5011697;28;20529;-60
2022/09/06 06:28:27;;;;;;;12.88;4.13;;;;;;;17.04;91.62;96064.09;5002219;28;20030;-60
2022/09/06 06:30:53;;;;;;;15.73;4.55;;;;;;;17.09;91.44;96053.78;5010161;28;20021;-60
2022/09/06 06:33:19;;;;;;;9.90;4.40;;;;;;;17.11;91.11;96053.59;5006389;28;20109;-60
2022/09/06 06:35:57;;;;;;;12.98;4.40;;;;;;;17.13;91.14;96057.75;5009399;28;20026;-60
2022/09/06 06:38:22;;;;;;;15.13;4.45;;;;;;;17.13;90.53;96052.44;5003176;28;20105;-60
2022/09/06 06:40:47;;;;;;;9.18;4.95;;;;;;;17.18;90.47;96054.56;4996563;28;20120;-60
2022/09/06 06:43:13;;;;;;;11.57;5.22;;;;;;;17.21;90.52;96054.19;4998614;28;20496;-60
2022/09/06 06:45:38;;;;;;;10.15;4.55;;;;;;;17.24;91.04;96048.56;4992746;28;20466;-60
2022/09/06 06:48:03;;;;;;;11.23;5.15;;;;;;;17.30;91.15;96049.66;4995858;28;20446;-59
2022/09/06 06:50:29;;;;;;;8.98;4.00;;;;;;;17.64;89.98;96048.47;4993648;28;20030;-59
2022/09/06 06:52:54;;;;;;;10.07;4.57;;;;;;;18.12;87.97;96050.91;4996148;28;20040;-60
2022/09/06 06:55:19;;;;;;;10.60;4.47;;;;;;;18.57;85.78;96042.16;4991979;28;20014;-60
2022/09/06 06:57:45;;;;;;;11.70;4.43;;;;;;;18.96;83.57;96037.53;4997308;28;20023;-59
2022/09/06 07:00:10;;;;;;;10.77;4.60;;;;;;;19.40;81.48;96035.78;4996377;28;20037;-60
2022/09/06 07:02:36;;;;;;;10.68;6.10;;;;;;;19.61;80.16;96048.34;4993310;28;20033;-60
2022/09/06 07:05:02;;;;;;;15.73;5.93;;;;;;;19.84;79.08;96042.78;4993916;28;20069;-60
2022/09/06 07:07:27;;;;;;;15.38;5.82;;;;;;;20.30;76.33;96052.25;5001011;28;20057;-60
2022/09/06 07:09:53;;;;;;;13.15;5.72;;;;;;;20.59;76.83;96050.38;4992776;28;20114;-60
2022/09/06 07:12:18;;;;;;;10.73;4.28;;;;;;;20.86;74.29;96055.09;4998913;28;20402;-60
2022/09/06 07:14:43;;;;;;;14.10;3.78;;;;;;;21.06;70.82;96049.81;4990470;28;20112;-60
2022/09/06 07:17:09;;;;;;;10.98;3.38;;;;;;;21.36;70.35;96048.69;4996282;28;20044;-60
2022/09/06 07:19:34;;;;;;;7.10;3.00;;;;;;;21.53;69.28;96044.63;4992834;28;20135;-60
2022/09/06 07:21:59;;;;;;;14.02;3.30;;;;;;;21.54;68.22;96042.75;4994409;28;20034;-60
2022/09/06 07:24:25;;;;;;;12.20;2.95;;;;;;;21.82;67.60;96036.47;4992276;28;20047;-60
2022/09/06 07:26:50;;;;;;;11.65;3.13;;;;;;;22.24;66.21;96039.78;5005683;28;20028;-61
2022/09/06 07:29:15;;;;;;;9.93;3.22;;;;;;;22.41;64.73;96037.47;5001786;28;20040;-59
2022/09/06 07:31:41;;;;;;;11.18;3.50;;;;;;;22.13;64.71;96035.84;4990433;28;20120;-60
2022/09/06 07:34:06;;;;;;;6.95;2.63;;;;;;;21.71;66.17;96030.66;4995712;28;20045;-60
2022/09/06 07:36:32;;;;;;;10.50;3.85;;;;;;;21.71;68.38;96041.38;4997220;28;20121;-59
2022/09/06 07:38:57;;;;;;;12.00;3.53;;;;;;;21.70;68.54;96037.06;4992230;28;20066;-59
2022/09/06 07:41:22;;;;;;;9.85;2.53;;;;;;;21.75;69.24;96037.25;4994521;28;20034;-59
2022/09/06 07:43:53;;;;;;;12.25;3.53;;;;;;;22.09;66.05;96039.16;4993832;28;20505;-60
2022/09/06 07:46:18;;;;;;;8.23;3.35;;;;;;;22.01;64.27;96032.97;5001917;28;20477;-59
2022/09/06 07:48:45;;;;;;;8.15;2.72;;;;;;;21.68;64.16;96036.44;5000927;28;20117;-59
2022/09/06 07:51:15;;;;;;;7.40;3.03;;;;;;;21.61;63.91;96035.56;4995939;28;20029;-60
2022/09/06 07:53:42;;;;;;;7.25;3.22;;;;;;;21.79;63.53;96032.31;4992617;28;20081;-59
2022/09/06 07:56:10;;;;;;;10.77;3.47;;;;;;;21.73;64.57;96033.16;4991758;28;20124;-59
2022/09/06 07:58:38;;;;;;;11.77;3.03;;;;;;;21.67;64.74;96029.44;4995478;28;20450;-59
2022/09/06 08:01:19;;;;;;;12.20;2.78;;;;;;;21.84;61.27;96034.41;4975538;28;20117;-59
2022/09/06 08:03:45;;;;;;;8.77;3.00;;;;;;;21.60;62.67;96037.41;4994481;28;20026;-59
2022/09/06 08:06:11;;;;;;;7.43;2.55;;;;;;;21.52;62.00;96045.66;4992983;28;20019;-59
2022/09/06 08:08:37;;;;;;;11.45;3.53;;;;;;;21.69;60.88;96043.44;4994082;28;20414;-59
2022/09/06 08:11:02;;;;;;;8.23;3.08;;;;;;;21.38;63.85;96047.47;4992847;28;20486;-59
2022/09/06 08:13:28;;;;;;;8.88;3.30;;;;;;;21.58;65.63;96042.16;4994345;28;20026;-59
2022/09/06 08:16:01;;;;;;;6.00;2.90;;;;;;;21.94;61.19;96039.34;4992310;28;20649;-60
2022/09/06 08:18:27;;;;;;;10.07;2.92;;;;;;;22.42;58.94;96038.28;4991390;28;20022;-58
2022/09/06 08:20:52;;;;;;;7.13;2.60;;;;;;;22.67;59.56;96032.31;4994123;28;20087;-59
2022/09/06 08:23:17;;;;;;;9.02;3.10;;;;;;;23.02;60.84;96037.34;4990212;28;20520;-59
2022/09/06 08:25:43;;;;;;;8.80;3.47;;;;;;;23.32;59.73;96040.34;4992246;28;20397;-59
2022/09/06 08:28:08;;;;;;;10.73;2.88;;;;;;;23.49;60.74;96036.31;4991414;28;20057;-58
2022/09/06 08:30:34;;;;;;;6.95;3.17;;;;;;;23.57;60.36;96038.78;4993186;28;20044;-59
2022/09/06 08:33:00;;;;;;;7.05;3.20;;;;;;;23.94;57.77;96030.84;4996959;28;20038;-59
2022/09/06 08:35:26;;;;;;;6.30;2.92;;;;;;;24.14;56.79;96032.59;4992343;28;20639;-59
2022/09/06 08:37:51;;;;;;;9.35;2.75;;;;;;;23.94;57.81;96038.13;4991553;28;20034;-59
2022/09/06 08:40:20;;;;;;;9.13;3.28;;;;;;;23.82;58.59;96033.44;5004480;28;20104;-59
2022/09/06 08:42:46;;;;;;;9.43;3.13;;;;;;;23.83;58.26;96037.75;4990801;28;20023;-59
2022/09/06 08:45:18;;;;;;;8.45;3.60;;;;;;;24.37;56.16;96039.22;4997838;28;20405;-59
2022/09/06 08:47:43;;;;;;;11.15;3.28;;;;;;;24.23;54.54;96031.28;5008941;28;20477;-59
2022/09/06 08:50:10;;;;;;;6.68;2.67;;;;;;;23.99;55.16;96020.28;4992383;28;20041;-58
2022/09/06 08:52:45;;;;;;;8.23;3.08;;;;;;;23.99;55.79;96019.47;4992873;28;20489;-60
2022/09/06 08:55:38;;;;;;;13.07;2.75;;;;;;;24.22;49.90;96023.44;4995376;28;20025;-59
2022/09/06 08:58:41;;;;;;;9.32;2.88;;;;;;;23.84;51.71;96019.78;4994071;28;20023;-59
2022/09/06 09:01:12;;;;;;;7.22;2.70;;;;;;;23.85;52.83;96024.91;5004780;28;20037;-59
2022/09/06 09:03:41;;;;;;;8.13;2.90;;;;;;;23.84;51.95;96015.22;4990967;28;20034;-59
2022/09/06 09:06:08;;;;;;;6.55;3.00;;;;;;;23.44;51.67;96015.50;5006060;28;20405;-58
2022/09/06 09:08:40;;;;;;;13.52;2.85;;;;;;;23.16;54.88;96019.31;4990119;28;20034;-59
2022/09/06 09:11:13;;;;;;;11.55;3.53;;;;;;;23.26;55.73;96016.19;5007474;28;20658;-60
2022/09/06 09:14:01;;;;;;;7.05;3.08;;;;;;;23.14;55.48;96003.44;4992747;28;20026;-59
2022/09/06 09:16:27;;;;;;;5.03;2.80;;;;;;;23.15;55.32;96007.75;4998762;28;20018;-59
2022/09/06 09:19:03;;;;;;;4.88;2.78;;;;;;;23.20;54.61;96006.28;5000178;28;20018;-59
2022/09/06 09:21:33;;;;;;;11.32;3.00;;;;;;;23.36;52.23;96008.50;4990371;28;20017;-59
2022/09/06 09:24:13;;;;;;;6.68;2.95;;;;;;;23.42;51.67;96014.88;4998457;28;20057;-59
2022/09/06 09:27:19;;;;;;;9.60;3.20;;;;;;;23.44;50.42;96013.63;4995901;28;20026;-59
2022/09/06 09:29:54;;;;;;;9.35;3.42;;;;;;;23.23;53.21;96017.44;4958083;28;20033;-59
2022/09/06 09:32:36;;;;;;;7.85;2.95;;;;;;;23.27;53.25;96005.25;4958703;28;20469;-59
2022/09/06 09:35:39;;;;;;;9.73;3.05;;;;;;;23.40;53.47;96008.88;4981700;28;20833;-59
2022/09/06 09:38:11;;;;;;;7.75;3.00;;;;;;;23.48;53.32;96011.34;4969972;28;20125;-59
2022/09/06 09:40:48;;;;;;;5.65;2.85;;;;;;;23.59;51.80;96007.94;4991001;28;20086;-59
2022/09/06 09:43:23;;;;;;;6.65;3.17;;;;;;;23.57;53.34;95999.28;5009496;28;20141;-59
2022/09/06 09:46:13;;;;;;;5.10;2.63;;;;;;;23.74;54.04;95999.56;5009774;28;20405;-58
2022/09/06 09:48:42;;;;;;;7.40;2.92;;;;;;;24.12;52.52;95999.72;4994548;28;20033;-58
2022/09/06 09:51:21;;;;;;;10.05;3.08;;;;;;;24.42;53.09;95978.34;5004399;28;20034;-58
2022/09/06 09:53:54;;;;;;;9.55;3.17;;;;;;;24.60;53.73;95972.13;5019134;28;20013;-58
2022/09/06 09:56:25;;;;;;;9.50;3.28;;;;;;;24.75;51.67;95968.28;4995406;28;20023;-58
2022/09/06 09:58:52;;;;;;;6.60;2.67;;;;;;;24.83;52.23;95957.19;4991474;28;20121;-58
2022/09/06 10:01:29;;;;;;;9.88;2.95;;;;;;;24.95;54.54;95964.53;5001590;28;20160;-58
2022/09/06 10:04:21;;;;;;;7.93;2.95;;;;;;;25.00;53.02;95956.59;4997454;28;20030;-59
2022/09/06 10:06:47;;;;;;;10.30;3.75;;;;;;;25.02;52.77;95951.78;4998314;28;20030;-59
2022/09/06 10:09:32;;;;;;;8.55;2.80;;;;;;;25.16;52.19;95939.78;4982502;28;20528;-58
2022/09/06 10:11:58;;;;;;;5.63;2.88;;;;;;;25.46;50.96;95932.75;4978173;28;20109;-58
2022/09/06 10:14:39;;;;;;;9.73;3.05;;;;;;;25.39;50.61;95938.22;4974533;28;20145;-58
2022/09/06 10:17:05;;;;;;;8.82;3.03;;;;;;;25.57;50.07;95928.47;4977945;28;20081;-58
2022/09/06 10:19:42;;;;;;;9.75;2.85;;;;;;;25.81;48.57;95915.00;4984018;28;20121;-58
2022/09/06 10:22:13;;;;;;;8.63;2.78;;;;;;;25.98;49.08;95923.22;4981404;28;20042;-58
2022/09/06 10:24:47;;;;;;;7.00;3.63;;;;;;;26.40;45.33;95908.78;4983054;28;20030;-58
2022/09/06 10:27:19;;;;;;;9.63;2.90;;;;;;;26.39;47.76;95909.81;4986419;28;20033;-58
2022/09/06 10:29:51;;;;;;;8.55;2.70;;;;;;;26.29;50.28;95907.72;4988205;28;20046;-58
2022/09/06 10:32:26;;;;;;;8.93;2.90;;;;;;;26.72;47.96;95900.25;4984522;28;20023;-70
2022/09/06 10:35:22;;;;;;;6.35;2.90;;;;;;;26.62;47.09;95894.63;4987312;28;20054;-63
2022/09/06 10:38:14;;;;;;;8.88;3.58;;;;;;;26.43;46.81;95886.72;4980895;28;20105;-62
2022/09/06 10:40:57;;;;;;;12.98;3.08;;;;;;;26.52;46.60;95885.28;4986676;28;20669;-62
2022/09/06 10:43:25;;;;;;;12.02;3.30;;;;;;;26.38;47.08;95881.19;4985304;28;20057;-62
2022/09/06 10:46:01;;;;;;;13.05;3.00;;;;;;;26.39;48.23;95869.34;4985727;28;20034;-61
2022/09/06 10:48:30;;;;;;;11.80;3.08;;;;;;;26.62;45.54;95871.19;4979094;28;20034;-61
2022/09/06 10:51:04;;;;;;;11.18;3.40;;;;;;;26.82;46.28;95868.03;4982292;28;20418;-59
2022/09/06 10:53:38;;;;;;;11.48;3.03;;;;;;;27.05;43.71;95863.63;4982694;28;20686;-59
2022/09/06 10:56:11;;;;;;;7.38;3.30;;;;;;;26.98;44.76;95847.59;4980782;28;20035;-60
2022/09/06 10:58:58;;;;;;;11.88;2.83;;;;;;;27.09;41.38;95855.84;4986987;28;20035;-59
2022/09/06 11:01:30;;;;;;;9.98;3.00;;;;;;;27.42;42.16;95846.97;4981406;28;20058;-59
2022/09/06 11:03:59;;;;;;;10.63;3.03;;;;;;;27.46;41.45;95845.41;4975217;28;20063;-60
2022/09/06 11:06:31;;;;;;;10.98;3.80;;;;;;;28.04;42.02;95841.66;4984578;28;20022;-59
2022/09/06 11:09:19;;;;;;;10.32;3.30;;;;;;;27.97;41.64;95830.22;4999543;28;20169;-61
2022/09/06 11:12:09;;;;;;;8.75;2.58;;;;;;;28.16;40.46;95825.34;4999645;28;20048;-60
2022/09/06 11:14:35;;;;;;;10.68;2.95;;;;;;;28.44;41.12;95815.41;4999417;28;20050;-60
2022/09/06 11:17:07;;;;;;;9.88;2.67;;;;;;;28.59;41.02;95822.88;5007900;28;20069;-60
2022/09/06 11:19:43;;;;;;;12.05;3.08;;;;;;;28.81;39.97;95814.75;4999325;28;20114;-59
2022/09/06 11:22:17;;;;;;;13.02;3.67;;;;;;;29.13;39.66;95808.56;5001702;28;20473;-60
2022/09/06 11:25:10;;;;;;;14.82;3.20;;;;;;;29.14;38.24;95801.22;5006404;28;20422;-60
2022/09/06 11:27:42;;;;;;;7.13;2.97;;;;;;;29.26;39.13;95792.91;5009964;28;20048;-60
2022/09/06 11:30:14;;;;;;;14.82;3.78;;;;;;;29.47;36.87;95787.69;5008528;28;20049;-60
2022/09/06 11:32:47;;;;;;;7.10;2.78;;;;;;;29.45;37.88;95785.25;5009113;28;20145;-60
2022/09/06 11:35:34;;;;;;;10.25;3.25;;;;;;;29.58;37.13;95782.06;4999849;28;20569;-59
2022/09/06 11:38:26;;;;;;;8.30;3.58;;;;;;;29.90;37.43;95766.78;4996218;28;20437;-60
2022/09/06 11:41:11;;;;;;;11.70;3.53;;;;;;;29.47;38.02;95768.69;4998666;28;20458;-60
2022/09/06 11:43:44;;;;;;;;;;;;;;;29.40;37.82;95760.75;5001612;28;20049;-60
2022/09/06 11:46:09;;;;;;;16.83;4.10;;;;;;;29.78;36.02;95763.47;5001002;28;19960;-59